sensor_id;sensor_type;location;lat;lon;timestamp;pressure;altitude;pressure_sealevel;temperature;humidity
10712;BME280;5407;51.234;6.804;2022-09-17T00:00:18;100737.34;;;24.05;42.01
10712;BME280;5407;51.234;6.804;2022-09-17T00:02:48;100740.97;;;24.02;42.41
10712;BME280;5407;51.234;6.804;2022-09-17T00:05:16;100729.94;;;24.02;41.94
10712;BME280;5407;51.234;6.804;2022-09-17T00:07:43;100726.41;;;24.02;42.47
10712;BME280;5407;51.234;6.804;2022-09-17T00:10:10;100726.41;;;24.02;41.98
10712;BME280;5407;51.234;6.804;2022-09-17T00:12:37;100727.19;;;24.02;42.05
10712;BME280;5407;51.234;6.804;2022-09-17T00:15:06;100732.03;;;23.98;42.88
10712;BME280;5407;51.234;6.804;2022-09-17T00:17:34;100735.13;;;24.00;42.50
10712;BME280;5407;51.234;6.804;2022-09-17T00:20:01;100730.81;;;23.99;42.67
10712;BME280;5407;51.234;6.804;2022-09-17T00:22:28;100737.53;;;23.98;42.42
10712;BME280;5407;51.234;6.804;2022-09-17T00:24:55;100735.13;;;24.00;42.23
10712;BME280;5407;51.234;6.804;2022-09-17T00:27:22;100738.75;;;23.97;43.04
10712;BME280;5407;51.234;6.804;2022-09-17T00:29:49;100739.16;;;23.96;43.41
10712;BME280;5407;51.234;6.804;2022-09-17T00:32:18;100736.84;;;23.94;43.92
10712;BME280;5407;51.234;6.804;2022-09-17T00:34:45;100742.34;;;23.94;43.69
10712;BME280;5407;51.234;6.804;2022-09-17T00:37:13;100742.00;;;23.92;43.58
10712;BME280;5407;51.234;6.804;2022-09-17T00:39:40;100739.25;;;23.92;43.06
10712;BME280;5407;51.234;6.804;2022-09-17T00:42:08;100747.19;;;23.90;41.64
10712;BME280;5407;51.234;6.804;2022-09-17T00:44:42;100752.75;;;23.87;40.46
10712;BME280;5407;51.234;6.804;2022-09-17T00:47:18;100759.19;;;23.80;39.09
10712;BME280;5407;51.234;6.804;2022-09-17T00:49:46;100755.88;;;23.70;39.48
10712;BME280;5407;51.234;6.804;2022-09-17T00:52:18;100746.75;;;23.57;39.69
10712;BME280;5407;51.234;6.804;2022-09-17T00:54:51;100754.53;;;23.42;39.51
10712;BME280;5407;51.234;6.804;2022-09-17T00:57:20;100762.28;;;23.28;40.25
10712;BME280;5407;51.234;6.804;2022-09-17T00:59:47;100755.88;;;23.15;40.71
10712;BME280;5407;51.234;6.804;2022-09-17T01:02:15;100764.75;;;23.03;40.33
10712;BME280;5407;51.234;6.804;2022-09-17T01:04:44;100761.06;;;22.90;41.25
10712;BME280;5407;51.234;6.804;2022-09-17T01:07:17;100757.38;;;22.77;41.18
10712;BME280;5407;51.234;6.804;2022-09-17T01:09:50;100757.16;;;22.68;40.95
10712;BME280;5407;51.234;6.804;2022-09-17T01:12:37;100758.50;;;22.60;41.46
10712;BME280;5407;51.234;6.804;2022-09-17T01:15:21;100764.13;;;22.53;41.45
10712;BME280;5407;51.234;6.804;2022-09-17T01:18:01;100759.56;;;22.43;41.33
10712;BME280;5407;51.234;6.804;2022-09-17T01:27:39;100759.28;;;22.11;42.21
10712;BME280;5407;51.234;6.804;2022-09-17T01:30:18;100764.16;;;22.00;42.41
10712;BME280;5407;51.234;6.804;2022-09-17T01:32:52;100764.25;;;21.93;42.61
10712;BME280;5407;51.234;6.804;2022-09-17T01:35:32;100763.66;;;21.82;42.60
10712;BME280;5407;51.234;6.804;2022-09-17T01:38:08;100758.63;;;21.77;42.82
10712;BME280;5407;51.234;6.804;2022-09-17T01:40:41;100755.91;;;21.74;42.96
10712;BME280;5407;51.234;6.804;2022-09-17T01:43:18;100759.19;;;21.65;42.70
10712;BME280;5407;51.234;6.804;2022-09-17T01:45:49;100761.22;;;21.61;42.91
10712;BME280;5407;51.234;6.804;2022-09-17T01:48:19;100768.69;;;21.57;43.25
10712;BME280;5407;51.234;6.804;2022-09-17T01:50:56;100760.53;;;21.50;42.96
10712;BME280;5407;51.234;6.804;2022-09-17T01:53:28;100762.25;;;21.41;43.21
10712;BME280;5407;51.234;6.804;2022-09-17T01:55:58;100765.34;;;21.43;43.38
10712;BME280;5407;51.234;6.804;2022-09-17T01:58:30;100761.09;;;21.38;43.83
10712;BME280;5407;51.234;6.804;2022-09-17T02:01:02;100759.53;;;21.37;44.04
10712;BME280;5407;51.234;6.804;2022-09-17T02:03:35;100767.41;;;21.35;43.94
10712;BME280;5407;51.234;6.804;2022-09-17T02:06:06;100766.22;;;21.36;43.68
10712;BME280;5407;51.234;6.804;2022-09-17T02:08:40;100765.44;;;21.36;43.62
10712;BME280;5407;51.234;6.804;2022-09-17T02:11:10;100776.00;;;21.37;44.02
10712;BME280;5407;51.234;6.804;2022-09-17T02:13:43;100784.59;;;21.39;43.67
10712;BME280;5407;51.234;6.804;2022-09-17T02:16:16;100774.88;;;21.35;43.66
10712;BME280;5407;51.234;6.804;2022-09-17T02:18:49;100767.41;;;21.35;43.90
10712;BME280;5407;51.234;6.804;2022-09-17T02:21:25;100778.78;;;21.34;43.72
10712;BME280;5407;51.234;6.804;2022-09-17T02:24:00;100769.41;;;21.31;43.72
10712;BME280;5407;51.234;6.804;2022-09-17T02:26:31;100762.75;;;21.32;43.89
10712;BME280;5407;51.234;6.804;2022-09-17T02:29:06;100764.31;;;21.30;44.08
10712;BME280;5407;51.234;6.804;2022-09-17T02:31:34;100768.59;;;21.34;43.91
10712;BME280;5407;51.234;6.804;2022-09-17T02:34:03;100769.78;;;21.33;43.52
10712;BME280;5407;51.234;6.804;2022-09-17T02:36:31;100768.22;;;21.32;43.46
10712;BME280;5407;51.234;6.804;2022-09-17T02:39:01;100769.88;;;21.26;43.34
10712;BME280;5407;51.234;6.804;2022-09-17T02:41:37;100763.56;;;21.29;43.69
10712;BME280;5407;51.234;6.804;2022-09-17T02:44:16;100763.47;;;21.36;44.27
10712;BME280;5407;51.234;6.804;2022-09-17T02:47:11;100773.53;;;21.46;44.30
10712;BME280;5407;51.234;6.804;2022-09-17T02:49:57;100771.06;;;21.55;44.32
10712;BME280;5407;51.234;6.804;2022-09-17T02:52:35;100774.13;;;21.64;44.21
10712;BME280;5407;51.234;6.804;2022-09-17T02:55:11;100781.00;;;21.76;43.91
10712;BME280;5407;51.234;6.804;2022-09-17T02:57:46;100773.09;;;21.81;43.86
10712;BME280;5407;51.234;6.804;2022-09-17T03:00:20;100781.56;;;21.90;43.61
10712;BME280;5407;51.234;6.804;2022-09-17T03:02:49;100774.41;;;21.96;43.55
10712;BME280;5407;51.234;6.804;2022-09-17T03:05:22;100778.63;;;22.04;43.55
10712;BME280;5407;51.234;6.804;2022-09-17T03:07:50;100783.66;;;22.09;43.41
10712;BME280;5407;51.234;6.804;2022-09-17T03:10:17;100778.09;;;22.13;43.57
10712;BME280;5407;51.234;6.804;2022-09-17T03:12:44;100789.03;;;22.16;43.51
10712;BME280;5407;51.234;6.804;2022-09-17T03:15:11;100786.22;;;22.19;43.51
10712;BME280;5407;51.234;6.804;2022-09-17T03:17:38;100782.25;;;22.24;42.93
10712;BME280;5407;51.234;6.804;2022-09-17T03:20:05;100784.16;;;22.27;43.10
10712;BME280;5407;51.234;6.804;2022-09-17T03:22:34;100782.56;;;22.29;42.95
10712;BME280;5407;51.234;6.804;2022-09-17T03:25:01;100789.53;;;22.34;42.88
10712;BME280;5407;51.234;6.804;2022-09-17T03:27:28;100785.97;;;22.37;42.74
10712;BME280;5407;51.234;6.804;2022-09-17T03:29:55;100781.63;;;22.39;42.74
10712;BME280;5407;51.234;6.804;2022-09-17T03:32:22;100778.44;;;22.41;42.55
10712;BME280;5407;51.234;6.804;2022-09-17T03:34:48;100787.03;;;22.43;42.67
10712;BME280;5407;51.234;6.804;2022-09-17T03:37:16;100778.41;;;22.44;42.62
10712;BME280;5407;51.234;6.804;2022-09-17T03:39:44;100791.34;;;22.44;42.75
10712;BME280;5407;51.234;6.804;2022-09-17T03:42:11;100779.94;;;22.45;42.48
10712;BME280;5407;51.234;6.804;2022-09-17T03:44:37;100780.31;;;22.47;42.60
10712;BME280;5407;51.234;6.804;2022-09-17T03:47:05;100789.31;;;22.48;42.38
10712;BME280;5407;51.234;6.804;2022-09-17T03:49:32;100796.38;;;22.49;42.45
10712;BME280;5407;51.234;6.804;2022-09-17T03:51:58;100785.38;;;22.49;42.46
10712;BME280;5407;51.234;6.804;2022-09-17T03:54:25;100786.16;;;22.49;42.50
10712;BME280;5407;51.234;6.804;2022-09-17T03:56:53;100791.66;;;22.49;42.09
10712;BME280;5407;51.234;6.804;2022-09-17T03:59:20;100793.22;;;22.50;42.46
10712;BME280;5407;51.234;6.804;2022-09-17T04:01:47;100788.50;;;22.51;42.40
10712;BME280;5407;51.234;6.804;2022-09-17T04:04:14;100800.28;;;22.51;42.36
10712;BME280;5407;51.234;6.804;2022-09-17T04:06:41;100794.78;;;22.51;42.35
10712;BME280;5407;51.234;6.804;2022-09-17T04:09:08;100792.81;;;22.52;42.18
10712;BME280;5407;51.234;6.804;2022-09-17T04:11:35;100789.28;;;22.51;42.17
10712;BME280;5407;51.234;6.804;2022-09-17T04:14:03;100794.38;;;22.53;42.23
10712;BME280;5407;51.234;6.804;2022-09-17T04:16:30;100797.13;;;22.53;42.26
10712;BME280;5407;51.234;6.804;2022-09-17T04:18:57;100799.06;;;22.52;42.18
10712;BME280;5407;51.234;6.804;2022-09-17T04:21:24;100807.31;;;22.52;42.16
10712;BME280;5407;51.234;6.804;2022-09-17T04:23:51;100817.91;;;22.54;42.25
10712;BME280;5407;51.234;6.804;2022-09-17T04:26:18;100811.63;;;22.53;42.39
10712;BME280;5407;51.234;6.804;2022-09-17T04:28:44;100804.56;;;22.52;42.24
10712;BME280;5407;51.234;6.804;2022-09-17T04:31:13;100805.00;;;22.51;41.98
10712;BME280;5407;51.234;6.804;2022-09-17T04:33:39;100813.25;;;22.51;42.22
10712;BME280;5407;51.234;6.804;2022-09-17T04:36:06;100809.31;;;22.52;42.26
10712;BME280;5407;51.234;6.804;2022-09-17T04:38:33;100812.06;;;22.52;42.39
10712;BME280;5407;51.234;6.804;2022-09-17T04:41:00;100823.06;;;22.52;42.26
10712;BME280;5407;51.234;6.804;2022-09-17T04:43:27;100816.00;;;22.51;42.18
10712;BME280;5407;51.234;6.804;2022-09-17T04:45:53;100805.78;;;22.51;42.29
10712;BME280;5407;51.234;6.804;2022-09-17T04:48:22;100818.31;;;22.52;42.20
10712;BME280;5407;51.234;6.804;2022-09-17T04:50:49;100824.63;;;22.53;42.24
10712;BME280;5407;51.234;6.804;2022-09-17T04:53:16;100821.06;;;22.52;42.26
10712;BME280;5407;51.234;6.804;2022-09-17T04:55:43;100820.66;;;22.54;42.20
10712;BME280;5407;51.234;6.804;2022-09-17T04:58:10;100824.63;;;22.53;42.26
10712;BME280;5407;51.234;6.804;2022-09-17T05:00:37;100819.88;;;22.53;42.13
10712;BME280;5407;51.234;6.804;2022-09-17T05:03:06;100825.81;;;22.52;42.14
10712;BME280;5407;51.234;6.804;2022-09-17T05:05:35;100831.31;;;22.52;42.18
10712;BME280;5407;51.234;6.804;2022-09-17T05:08:02;100829.31;;;22.52;42.18
10712;BME280;5407;51.234;6.804;2022-09-17T05:10:29;100830.09;;;22.53;42.13
10712;BME280;5407;51.234;6.804;2022-09-17T05:12:56;100832.84;;;22.53;42.31
10712;BME280;5407;51.234;6.804;2022-09-17T05:15:24;100838.00;;;22.51;42.20
10712;BME280;5407;51.234;6.804;2022-09-17T05:17:51;100834.06;;;22.52;42.27
10712;BME280;5407;51.234;6.804;2022-09-17T05:20:18;100827.41;;;22.49;41.97
10712;BME280;5407;51.234;6.804;2022-09-17T05:22:47;100831.72;;;22.50;42.11
10712;BME280;5407;51.234;6.804;2022-09-17T05:25:17;100838.00;;;22.51;42.19
10712;BME280;5407;51.234;6.804;2022-09-17T05:27:45;100834.84;;;22.49;42.02
10712;BME280;5407;51.234;6.804;2022-09-17T05:30:12;100834.84;;;22.49;42.06
10712;BME280;5407;51.234;6.804;2022-09-17T05:32:39;100832.09;;;22.49;41.97
10712;BME280;5407;51.234;6.804;2022-09-17T05:35:09;100836.06;;;22.48;42.09
10712;BME280;5407;51.234;6.804;2022-09-17T05:37:36;100838.81;;;22.48;42.23
10712;BME280;5407;51.234;6.804;2022-09-17T05:40:07;100844.31;;;22.48;42.13
10712;BME280;5407;51.234;6.804;2022-09-17T05:42:34;100853.75;;;22.47;42.10
10712;BME280;5407;51.234;6.804;2022-09-17T05:45:01;100858.47;;;22.46;41.92
10712;BME280;5407;51.234;6.804;2022-09-17T05:47:29;100856.84;;;22.49;42.22
10712;BME280;5407;51.234;6.804;2022-09-17T05:49:56;100862.34;;;22.49;42.17
10712;BME280;5407;51.234;6.804;2022-09-17T05:52:25;100859.25;;;22.47;42.00
10712;BME280;5407;51.234;6.804;2022-09-17T05:54:52;100858.84;;;22.48;42.15
10712;BME280;5407;51.234;6.804;2022-09-17T05:57:20;100865.53;;;22.47;42.31
10712;BME280;5407;51.234;6.804;2022-09-17T05:59:47;100873.34;;;22.49;42.11
10712;BME280;5407;51.234;6.804;2022-09-17T06:02:14;100873.78;;;22.47;42.01
10712;BME280;5407;51.234;6.804;2022-09-17T06:04:41;100876.53;;;22.47;42.09
10712;BME280;5407;51.234;6.804;2022-09-17T06:07:08;100878.09;;;22.48;42.29
10712;BME280;5407;51.234;6.804;2022-09-17T06:09:35;100883.59;;;22.48;42.40
10712;BME280;5407;51.234;6.804;2022-09-17T06:12:03;100885.53;;;22.48;42.36
10712;BME280;5407;51.234;6.804;2022-09-17T06:14:31;100882.78;;;22.48;42.42
10712;BME280;5407;51.234;6.804;2022-09-17T06:16:58;100884.00;;;22.47;42.52
10712;BME280;5407;51.234;6.804;2022-09-17T06:19:26;100890.69;;;22.46;42.26
10712;BME280;5407;51.234;6.804;2022-09-17T06:21:53;100892.25;;;22.47;42.68
10712;BME280;5407;51.234;6.804;2022-09-17T06:24:20;100896.97;;;22.46;42.45
10712;BME280;5407;51.234;6.804;2022-09-17T06:26:47;100894.22;;;22.46;42.42
10712;BME280;5407;51.234;6.804;2022-09-17T06:29:14;100893.44;;;22.46;42.54
10712;BME280;5407;51.234;6.804;2022-09-17T06:31:42;100896.63;;;22.44;42.49
10712;BME280;5407;51.234;6.804;2022-09-17T06:34:09;100904.44;;;22.46;42.43
10712;BME280;5407;51.234;6.804;2022-09-17T06:36:36;100905.63;;;22.45;42.55
10712;BME280;5407;51.234;6.804;2022-09-17T06:39:03;100908.38;;;22.45;42.50
10712;BME280;5407;51.234;6.804;2022-09-17T06:41:30;100898.56;;;22.44;42.49
10712;BME280;5407;51.234;6.804;2022-09-17T06:43:57;100899.38;;;22.44;42.44
10712;BME280;5407;51.234;6.804;2022-09-17T06:46:26;100906.81;;;22.44;42.58
10712;BME280;5407;51.234;6.804;2022-09-17T06:48:54;100899.00;;;22.42;42.19
10712;BME280;5407;51.234;6.804;2022-09-17T06:51:21;100897.00;;;22.43;42.13
10712;BME280;5407;51.234;6.804;2022-09-17T06:53:48;100895.47;;;22.42;42.52
10712;BME280;5407;51.234;6.804;2022-09-17T06:56:15;100905.69;;;22.41;42.50
10712;BME280;5407;51.234;6.804;2022-09-17T06:58:43;100910.00;;;22.42;42.32
10712;BME280;5407;51.234;6.804;2022-09-17T07:01:12;100908.44;;;22.41;42.44
10712;BME280;5407;51.234;6.804;2022-09-17T07:03:40;100906.09;;;22.40;42.54
10712;BME280;5407;51.234;6.804;2022-09-17T07:06:10;100908.84;;;22.40;42.45
10712;BME280;5407;51.234;6.804;2022-09-17T07:08:37;100918.28;;;22.39;42.41
10712;BME280;5407;51.234;6.804;2022-09-17T07:11:04;100916.34;;;22.36;42.68
10712;BME280;5407;51.234;6.804;2022-09-17T07:13:32;100917.53;;;22.35;42.55
10712;BME280;5407;51.234;6.804;2022-09-17T07:16:01;100916.75;;;22.34;42.44
10712;BME280;5407;51.234;6.804;2022-09-17T07:18:28;100917.53;;;22.35;42.59
10712;BME280;5407;51.234;6.804;2022-09-17T07:20:56;100909.72;;;22.33;42.27
10712;BME280;5407;51.234;6.804;2022-09-17T07:23:26;100912.47;;;22.33;42.37
10712;BME280;5407;51.234;6.804;2022-09-17T07:25:55;100903.78;;;22.35;42.34
10712;BME280;5407;51.234;6.804;2022-09-17T07:28:23;100906.53;;;22.35;42.29
10712;BME280;5407;51.234;6.804;2022-09-17T07:30:51;100906.53;;;22.35;42.17
10712;BME280;5407;51.234;6.804;2022-09-17T07:33:20;100904.22;;;22.33;42.52
10712;BME280;5407;51.234;6.804;2022-09-17T07:35:53;100908.56;;;22.31;42.58
10712;BME280;5407;51.234;6.804;2022-09-17T07:38:20;100903.06;;;22.31;41.87
10712;BME280;5407;51.234;6.804;2022-09-17T07:40:57;100907.78;;;22.30;41.93
10712;BME280;5407;51.234;6.804;2022-09-17T07:43:24;100896.38;;;22.32;42.29
10712;BME280;5407;51.234;6.804;2022-09-17T07:45:52;100897.16;;;22.32;41.78
10712;BME280;5407;51.234;6.804;2022-09-17T07:48:19;100909.34;;;22.31;42.27
10712;BME280;5407;51.234;6.804;2022-09-17T07:50:46;100903.50;;;22.29;42.09
10712;BME280;5407;51.234;6.804;2022-09-17T07:53:13;100905.44;;;22.29;42.26
10712;BME280;5407;51.234;6.804;2022-09-17T07:55:39;100912.13;;;22.28;42.28
10712;BME280;5407;51.234;6.804;2022-09-17T07:58:08;100900.31;;;22.31;41.60
10712;BME280;5407;51.234;6.804;2022-09-17T08:00:35;100915.25;;;22.30;42.28
10712;BME280;5407;51.234;6.804;2022-09-17T08:03:02;100906.63;;;22.28;42.27
10712;BME280;5407;51.234;6.804;2022-09-17T08:05:31;100906.63;;;22.28;42.16
10712;BME280;5407;51.234;6.804;2022-09-17T08:07:57;100906.63;;;22.28;42.17
10712;BME280;5407;51.234;6.804;2022-09-17T08:10:24;100909.03;;;22.26;42.33
10712;BME280;5407;51.234;6.804;2022-09-17T08:12:54;100911.41;;;22.24;42.39
10712;BME280;5407;51.234;6.804;2022-09-17T08:15:23;100909.84;;;22.23;42.35
10712;BME280;5407;51.234;6.804;2022-09-17T08:17:51;100916.53;;;22.22;42.23
10712;BME280;5407;51.234;6.804;2022-09-17T08:20:18;100905.91;;;22.24;41.34
10712;BME280;5407;51.234;6.804;2022-09-17T08:22:45;100916.91;;;22.24;41.87
10712;BME280;5407;51.234;6.804;2022-09-17T08:25:12;100912.97;;;22.25;41.76
10712;BME280;5407;51.234;6.804;2022-09-17T08:27:39;100913.69;;;22.29;41.09
10712;BME280;5407;51.234;6.804;2022-09-17T08:30:07;100918.00;;;22.30;41.20
10712;BME280;5407;51.234;6.804;2022-09-17T08:32:35;100905.03;;;22.30;41.04
10712;BME280;5407;51.234;6.804;2022-09-17T08:35:02;100920.75;;;22.30;41.54
10712;BME280;5407;51.234;6.804;2022-09-17T08:37:29;100914.50;;;22.29;41.44
10712;BME280;5407;51.234;6.804;2022-09-17T08:39:56;100913.69;;;22.29;41.32
10712;BME280;5407;51.234;6.804;2022-09-17T08:42:28;100921.19;;;22.28;41.09
10712;BME280;5407;51.234;6.804;2022-09-17T08:44:58;100913.28;;;22.30;40.82
10712;BME280;5407;51.234;6.804;2022-09-17T08:47:27;100917.59;;;22.31;40.89
10712;BME280;5407;51.234;6.804;2022-09-17T08:49:58;100923.84;;;22.32;40.85
10712;BME280;5407;51.234;6.804;2022-09-17T08:52:46;100923.50;;;22.30;41.20
10712;BME280;5407;51.234;6.804;2022-09-17T08:55:27;100923.84;;;22.32;41.54
10712;BME280;5407;51.234;6.804;2022-09-17T08:58:06;100916.34;;;22.36;41.42
10712;BME280;5407;51.234;6.804;2022-09-17T09:00:40;100920.66;;;22.37;41.22
10712;BME280;5407;51.234;6.804;2022-09-17T09:03:20;100917.53;;;22.38;41.41
10712;BME280;5407;51.234;6.804;2022-09-17T09:05:51;100923.03;;;22.38;41.70
10712;BME280;5407;51.234;6.804;2022-09-17T09:08:29;100920.28;;;22.38;41.66
10712;BME280;5407;51.234;6.804;2022-09-17T09:10:59;100923.78;;;22.39;42.06
10712;BME280;5407;51.234;6.804;2022-09-17T09:13:30;100910.41;;;22.41;41.61
10712;BME280;5407;51.234;6.804;2022-09-17T09:16:02;100920.56;;;22.44;41.07
10712;BME280;5407;51.234;6.804;2022-09-17T09:18:34;100915.06;;;22.44;41.11
10712;BME280;5407;51.234;6.804;2022-09-17T09:21:15;100916.25;;;22.43;41.49
10712;BME280;5407;51.234;6.804;2022-09-17T09:23:52;100928.41;;;22.45;41.47
10712;BME280;5407;51.234;6.804;2022-09-17T09:26:23;100909.53;;;22.47;41.36
10712;BME280;5407;51.234;6.804;2022-09-17T09:29:03;100925.22;;;22.47;41.25
10712;BME280;5407;51.234;6.804;2022-09-17T09:31:43;100906.34;;;22.49;41.34
10712;BME280;5407;51.234;6.804;2022-09-17T09:34:13;100900.03;;;22.52;41.01
10712;BME280;5407;51.234;6.804;2022-09-17T09:36:43;100909.78;;;22.56;40.43
10712;BME280;5407;51.234;6.804;2022-09-17T09:39:14;100916.06;;;22.57;39.86
10712;BME280;5407;51.234;6.804;2022-09-17T09:41:46;100912.47;;;22.60;40.51
10712;BME280;5407;51.234;6.804;2022-09-17T09:44:15;100915.59;;;22.62;40.28
10712;BME280;5407;51.234;6.804;2022-09-17T09:47:07;100921.84;;;22.62;40.48
10712;BME280;5407;51.234;6.804;2022-09-17T09:49:46;100910.47;;;22.64;41.36
10712;BME280;5407;51.234;6.804;2022-09-17T09:52:27;100910.69;;;22.73;42.26
10712;BME280;5407;51.234;6.804;2022-09-17T09:55:06;100911.41;;;22.77;43.53
10712;BME280;5407;51.234;6.804;2022-09-17T09:57:42;100898.75;;;22.83;42.64
10712;BME280;5407;51.234;6.804;2022-09-17T10:00:28;100918.31;;;22.88;43.15
10712;BME280;5407;51.234;6.804;2022-09-17T10:02:59;100913.53;;;22.92;44.31
10712;BME280;5407;51.234;6.804;2022-09-17T10:05:28;100912.28;;;22.97;43.87
10712;BME280;5407;51.234;6.804;2022-09-17T10:07:57;100906.78;;;22.97;43.90
10712;BME280;5407;51.234;6.804;2022-09-17T10:10:24;100909.44;;;23.00;43.49
10712;BME280;5407;51.234;6.804;2022-09-17T10:13:04;100910.25;;;23.01;43.06
10712;BME280;5407;51.234;6.804;2022-09-17T10:15:32;100911.81;;;23.02;42.98
10712;BME280;5407;51.234;6.804;2022-09-17T10:18:10;100899.25;;;23.01;42.49
10712;BME280;5407;51.234;6.804;2022-09-17T10:20:51;100896.03;;;23.02;41.96
10712;BME280;5407;51.234;6.804;2022-09-17T10:23:20;100896.84;;;23.03;41.70
10712;BME280;5407;51.234;6.804;2022-09-17T10:25:48;100903.91;;;23.04;41.76
10712;BME280;5407;51.234;6.804;2022-09-17T10:28:32;100895.66;;;23.04;41.77
10712;BME280;5407;51.234;6.804;2022-09-17T10:31:02;100902.34;;;23.03;42.04
10712;BME280;5407;51.234;6.804;2022-09-17T10:33:31;100901.16;;;23.04;41.37
10712;BME280;5407;51.234;6.804;2022-09-17T10:36:01;100897.19;;;23.05;41.25
10712;BME280;5407;51.234;6.804;2022-09-17T10:38:37;100886.53;;;23.07;40.72
10712;BME280;5407;51.234;6.804;2022-09-17T10:41:18;100891.25;;;23.10;39.93
10712;BME280;5407;51.234;6.804;2022-09-17T10:43:46;100893.16;;;23.13;40.53
10712;BME280;5407;51.234;6.804;2022-09-17T10:46:18;100884.91;;;23.13;39.94
10712;BME280;5407;51.234;6.804;2022-09-17T10:48:56;100886.09;;;23.12;40.02
10712;BME280;5407;51.234;6.804;2022-09-17T10:51:24;100877.84;;;23.12;40.03
10712;BME280;5407;51.234;6.804;2022-09-17T10:56:58;100862.78;;;23.16;40.11
10712;BME280;5407;51.234;6.804;2022-09-17T10:59:40;100870.28;;;23.16;39.90
10712;BME280;5407;51.234;6.804;2022-09-17T11:05:28;100860.84;;;23.17;39.37
10712;BME280;5407;51.234;6.804;2022-09-17T11:08:05;100851.03;;;23.16;39.41
10712;BME280;5407;51.234;6.804;2022-09-17T11:10:40;100862.38;;;23.18;38.94
10712;BME280;5407;51.234;6.804;2022-09-17T11:13:18;100858.84;;;23.17;39.37
10712;BME280;5407;51.234;6.804;2022-09-17T11:16:03;100865.91;;;23.18;39.47
10712;BME280;5407;51.234;6.804;2022-09-17T11:18:39;100860.78;;;23.20;38.88
10712;BME280;5407;51.234;6.804;2022-09-17T11:21:38;100860.34;;;23.22;38.81
10712;BME280;5407;51.234;6.804;2022-09-17T11:27:25;100859.13;;;23.23;38.86
10712;BME280;5407;51.234;6.804;2022-09-17T11:30:09;100881.94;;;23.23;38.59
10712;BME280;5407;51.234;6.804;2022-09-17T11:33:21;100878.00;;;23.24;37.93
10712;BME280;5407;51.234;6.804;2022-09-17T11:35:56;100888.56;;;23.26;38.31
10712;BME280;5407;51.234;6.804;2022-09-17T11:38:29;100884.72;;;23.23;39.03
10712;BME280;5407;51.234;6.804;2022-09-17T11:41:03;100877.28;;;23.40;38.29
10712;BME280;5407;51.234;6.804;2022-09-17T11:43:33;100877.38;;;23.56;37.40
10712;BME280;5407;51.234;6.804;2022-09-17T11:46:07;100892.25;;;23.77;37.22
10712;BME280;5407;51.234;6.804;2022-09-17T11:48:38;100891.28;;;23.87;36.70
10712;BME280;5407;51.234;6.804;2022-09-17T11:51:21;100896.75;;;23.91;36.63
10712;BME280;5407;51.234;6.804;2022-09-17T11:53:51;100902.19;;;23.94;36.32
10712;BME280;5407;51.234;6.804;2022-09-17T11:56:24;100902.53;;;23.96;36.44
10712;BME280;5407;51.234;6.804;2022-09-17T11:58:56;100907.19;;;23.99;36.06
10712;BME280;5407;51.234;6.804;2022-09-17T12:01:30;100894.19;;;24.00;36.64
10712;BME280;5407;51.234;6.804;2022-09-17T12:04:11;100890.91;;;24.05;37.03
10712;BME280;5407;51.234;6.804;2022-09-17T12:06:46;100890.84;;;24.08;37.03
10712;BME280;5407;51.234;6.804;2022-09-17T12:09:19;100885.69;;;24.10;36.76
10712;BME280;5407;51.234;6.804;2022-09-17T12:11:52;100887.25;;;24.11;36.99
10712;BME280;5407;51.234;6.804;2022-09-17T12:14:23;100900.16;;;24.14;36.94
10712;BME280;5407;51.234;6.804;2022-09-17T12:16:56;100885.19;;;24.15;37.34
10712;BME280;5407;51.234;6.804;2022-09-17T12:19:30;100889.06;;;24.18;37.66
10712;BME280;5407;51.234;6.804;2022-09-17T12:22:00;100879.59;;;24.19;37.87
10712;BME280;5407;51.234;6.804;2022-09-17T12:24:30;100887.78;;;24.22;37.60
10712;BME280;5407;51.234;6.804;2022-09-17T12:27:04;100887.78;;;24.22;37.51
10712;BME280;5407;51.234;6.804;2022-09-17T12:29:48;100912.59;;;24.22;37.59
10712;BME280;5407;51.234;6.804;2022-09-17T12:32:31;100941.72;;;24.23;37.22
10712;BME280;5407;51.234;6.804;2022-09-17T12:35:04;100960.59;;;24.25;37.31
10712;BME280;5407;51.234;6.804;2022-09-17T12:37:44;100962.91;;;24.26;38.14
10712;BME280;5407;51.234;6.804;2022-09-17T12:40:20;100958.94;;;24.27;37.85
10712;BME280;5407;51.234;6.804;2022-09-17T12:46:02;100913.63;;;24.28;38.43
10712;BME280;5407;51.234;6.804;2022-09-17T12:48:44;100910.09;;;24.28;38.61
10712;BME280;5407;51.234;6.804;2022-09-17T12:51:30;100899.94;;;24.25;38.90
10712;BME280;5407;51.234;6.804;2022-09-17T12:54:08;100903.13;;;24.23;38.99
10712;BME280;5407;51.234;6.804;2022-09-17T12:56:49;100897.25;;;24.21;39.05
10712;BME280;5407;51.234;6.804;2022-09-17T12:59:24;100888.13;;;24.24;39.02
10712;BME280;5407;51.234;6.804;2022-09-17T13:01:57;100881.06;;;24.23;38.95
10712;BME280;5407;51.234;6.804;2022-09-17T13:04:44;100886.16;;;24.25;39.15
10712;BME280;5407;51.234;6.804;2022-09-17T13:07:46;100870.72;;;24.27;38.99
10712;BME280;5407;51.234;6.804;2022-09-17T13:10:40;100866.75;;;24.28;38.93
10712;BME280;5407;51.234;6.804;2022-09-17T13:13:25;100871.06;;;24.29;39.08
10712;BME280;5407;51.234;6.804;2022-09-17T13:16:00;100864.69;;;24.32;38.58
10712;BME280;5407;51.234;6.804;2022-09-17T13:18:36;100865.03;;;24.34;39.01
10712;BME280;5407;51.234;6.804;2022-09-17T13:21:10;100856.75;;;24.34;39.29
10712;BME280;5407;51.234;6.804;2022-09-17T13:23:40;100855.56;;;24.35;38.77
10712;BME280;5407;51.234;6.804;2022-09-17T13:26:10;100860.13;;;24.42;38.55
10712;BME280;5407;51.234;6.804;2022-09-17T13:28:40;100856.19;;;24.43;38.34
10712;BME280;5407;51.234;6.804;2022-09-17T13:31:07;100857.72;;;24.44;39.20
10712;BME280;5407;51.234;6.804;2022-09-17T13:33:50;100854.56;;;24.45;38.42
10712;BME280;5407;51.234;6.804;2022-09-17T13:36:38;100848.16;;;24.48;38.25
10712;BME280;5407;51.234;6.804;2022-09-17T13:39:08;100846.19;;;24.49;38.51
10712;BME280;5407;51.234;6.804;2022-09-17T13:41:37;100841.44;;;24.49;38.44